createdAt,value
2022-08-30T00:01:27.195Z,17.89
2022-08-30T00:04:01.027Z,17.87
2022-08-30T00:06:32.677Z,17.80
2022-08-30T00:09:04.409Z,17.77
2022-08-30T00:11:36.004Z,17.77
2022-08-30T00:14:07.658Z,17.77
2022-08-30T00:16:39.212Z,17.75
2022-08-30T00:19:10.918Z,17.72
2022-08-30T00:21:42.505Z,17.68
2022-08-30T00:24:15.590Z,17.66
2022-08-30T00:26:47.153Z,17.66
2022-08-30T00:29:18.871Z,17.65
2022-08-30T00:31:50.481Z,17.65
2022-08-30T00:34:26.461Z,17.59
2022-08-30T00:36:59.241Z,17.55
2022-08-30T00:39:30.893Z,17.52
2022-08-30T00:42:02.465Z,17.46
2022-08-30T00:44:34.482Z,17.46
2022-08-30T00:47:09.408Z,17.46
2022-08-30T00:49:45.331Z,17.44
2022-08-30T00:52:18.686Z,17.40
2022-08-30T00:54:53.991Z,17.41
2022-08-30T00:57:25.613Z,17.40
2022-08-30T00:59:58.521Z,17.38
2022-08-30T01:02:31.269Z,17.35
2022-08-30T01:05:07.007Z,17.29
2022-08-30T01:07:39.619Z,17.27
2022-08-30T01:10:13.665Z,17.24
2022-08-30T01:12:46.371Z,17.24
2022-08-30T01:15:21.053Z,17.25
2022-08-30T01:17:53.270Z,17.26
2022-08-30T01:20:31.753Z,17.22
2022-08-30T01:23:15.575Z,17.15
2022-08-30T01:25:50.006Z,17.13
2022-08-30T01:28:27.289Z,17.11
2022-08-30T01:30:59.064Z,17.09
2022-08-30T01:33:31.593Z,17.05
2022-08-30T01:36:06.968Z,17.07
2022-08-30T01:38:45.534Z,17.06
2022-08-30T01:41:21.924Z,17.05
2022-08-30T01:43:56.522Z,17.05
2022-08-30T01:46:35.982Z,17.02
2022-08-30T01:49:16.332Z,16.92
2022-08-30T01:51:48.027Z,16.89
2022-08-30T01:54:22.563Z,16.90
2022-08-30T01:56:58.908Z,16.91
2022-08-30T01:59:30.872Z,16.92
2022-08-30T02:02:04.731Z,16.92
2022-08-30T02:04:36.806Z,16.93
2022-08-30T02:07:08.692Z,16.98
2022-08-30T02:09:40.383Z,16.98
2022-08-30T02:12:12.195Z,16.88
2022-08-30T02:14:44.358Z,16.91
2022-08-30T02:17:16.482Z,16.95
2022-08-30T02:19:48.031Z,16.99
2022-08-30T02:22:21.009Z,17.04
2022-08-30T02:24:52.610Z,17.04
2022-08-30T02:27:26.133Z,16.99
2022-08-30T02:29:57.732Z,16.98
2022-08-30T02:32:29.389Z,16.97
2022-08-30T02:35:00.969Z,16.97
2022-08-30T02:37:32.571Z,17.03
2022-08-30T02:40:07.467Z,17.05
2022-08-30T02:42:39.217Z,17.08
2022-08-30T02:45:11.372Z,17.03
2022-08-30T02:47:46.831Z,17.01
2022-08-30T02:50:18.857Z,16.99
2022-08-30T02:52:50.928Z,16.97
2022-08-30T02:55:23.254Z,16.97
2022-08-30T02:57:54.893Z,16.98
2022-08-30T03:00:26.497Z,16.99
2022-08-30T03:02:58.559Z,17.01
2022-08-30T03:05:32.993Z,16.98
2022-08-30T03:08:04.994Z,16.98
2022-08-30T03:10:38.340Z,16.97
2022-08-30T03:13:10.287Z,16.98
2022-08-30T03:15:42.901Z,16.96
2022-08-30T03:18:18.349Z,16.93
2022-08-30T03:20:54.409Z,16.93
2022-08-30T03:23:27.118Z,16.89
2022-08-30T03:25:58.719Z,16.87
2022-08-30T03:28:30.317Z,16.84
2022-08-30T03:31:01.957Z,16.82
2022-08-30T03:33:33.562Z,16.83
2022-08-30T03:36:05.596Z,16.81
2022-08-30T03:38:38.385Z,16.81
2022-08-30T03:41:12.854Z,16.80
2022-08-30T03:43:47.696Z,16.72
2022-08-30T03:46:19.625Z,16.70
2022-08-30T03:48:58.327Z,16.70
2022-08-30T03:51:30.223Z,16.71
2022-08-30T03:54:02.842Z,16.71
2022-08-30T03:56:34.442Z,16.70
2022-08-30T03:59:06.605Z,16.70
2022-08-30T04:01:38.395Z,16.72
2022-08-30T04:04:10.021Z,16.71
2022-08-30T04:06:41.748Z,16.71
2022-08-30T04:09:13.356Z,16.71
2022-08-30T04:11:44.913Z,16.73
2022-08-30T04:14:17.439Z,16.73
2022-08-30T04:16:49.690Z,16.72
2022-08-30T04:19:21.389Z,16.73
2022-08-30T04:21:52.954Z,16.73
2022-08-30T04:24:25.460Z,16.73
2022-08-30T04:26:57.054Z,16.75
2022-08-30T04:29:28.697Z,16.77
2022-08-30T04:32:00.378Z,16.77
2022-08-30T04:34:32.024Z,16.74
2022-08-30T04:37:03.655Z,16.74
2022-08-30T04:39:35.893Z,16.63
2022-08-30T04:42:07.741Z,16.49
2022-08-30T04:44:39.398Z,16.42
2022-08-30T04:47:10.989Z,16.49
2022-08-30T04:49:42.627Z,16.60
2022-08-30T04:52:14.469Z,16.76
2022-08-30T04:54:46.077Z,16.90
2022-08-30T04:57:17.649Z,17.09
2022-08-30T04:59:49.340Z,17.30
2022-08-30T05:02:21.698Z,17.46
2022-08-30T05:05:11.945Z,17.53
2022-08-30T05:07:46.139Z,17.71
2022-08-30T05:10:18.097Z,17.94
2022-08-30T05:12:50.418Z,18.17
2022-08-30T05:15:24.954Z,18.38
2022-08-30T05:17:56.432Z,18.57
2022-08-30T05:20:28.201Z,18.55
2022-08-30T05:22:59.800Z,18.64
2022-08-30T05:25:36.299Z,18.84
2022-08-30T05:28:09.303Z,19.09
2022-08-30T05:30:41.087Z,19.38
2022-08-30T05:33:15.618Z,19.67
2022-08-30T05:35:47.296Z,19.98
2022-08-30T05:38:18.903Z,20.18
2022-08-30T05:40:50.611Z,20.41
2022-08-30T05:43:27.832Z,20.60
2022-08-30T05:46:13.518Z,20.97
2022-08-30T05:48:46.607Z,21.28
2022-08-30T05:51:24.039Z,21.59
2022-08-30T05:53:57.887Z,21.86
2022-08-30T05:56:35.414Z,21.99
2022-08-30T05:59:08.889Z,22.12
2022-08-30T06:01:46.205Z,22.37
2022-08-30T06:04:17.887Z,22.69
2022-08-30T06:06:49.506Z,22.96
2022-08-30T06:09:21.258Z,23.08
2022-08-30T06:11:52.905Z,22.97
2022-08-30T06:14:25.254Z,22.94
2022-08-30T06:16:58.451Z,22.99
2022-08-30T06:19:30.185Z,23.14
2022-08-30T06:22:01.984Z,23.24
2022-08-30T06:24:54.010Z,23.52
2022-08-30T06:27:25.509Z,23.75
2022-08-30T06:29:57.125Z,23.85
2022-08-30T06:32:28.854Z,23.92
2022-08-30T06:35:00.721Z,23.96
2022-08-30T06:37:33.289Z,24.11
2022-08-30T06:40:05.423Z,24.21
2022-08-30T06:42:37.209Z,24.37
2022-08-30T06:45:10.869Z,24.21
2022-08-30T06:47:44.879Z,24.73
2022-08-30T06:50:17.703Z,25.17
2022-08-30T06:52:49.634Z,25.48
2022-08-30T06:55:21.292Z,26.10
2022-08-30T06:57:52.874Z,26.55
2022-08-30T07:00:24.499Z,26.67
2022-08-30T07:02:56.441Z,26.85
2022-08-30T07:05:28.668Z,27.25
2022-08-30T07:08:01.364Z,27.47
2022-08-30T07:10:32.952Z,27.80
2022-08-30T07:13:04.574Z,28.01
2022-08-30T07:15:38.457Z,28.20
2022-08-30T07:18:33.369Z,28.01
2022-08-30T07:21:10.916Z,27.58
2022-08-30T07:23:43.810Z,27.29
2022-08-30T07:26:18.941Z,27.13
2022-08-30T07:28:55.862Z,26.83
2022-08-30T07:31:28.885Z,26.55
2022-08-30T07:34:06.004Z,25.79
2022-08-30T07:36:38.964Z,25.32
2022-08-30T07:39:10.604Z,24.91
2022-08-30T07:41:42.190Z,25.04
2022-08-30T07:44:13.801Z,25.22
2022-08-30T07:46:45.476Z,25.58
2022-08-30T07:49:18.062Z,25.92
2022-08-30T07:51:49.640Z,25.98
2022-08-30T07:54:21.252Z,25.97
2022-08-30T07:56:55.698Z,25.40
2022-08-30T07:59:27.328Z,25.36
2022-08-30T08:01:58.989Z,25.31
2022-08-30T08:04:30.751Z,25.13
2022-08-30T08:07:02.648Z,24.84
2022-08-30T08:09:35.446Z,24.45
2022-08-30T08:12:08.029Z,23.97
2022-08-30T08:14:41.479Z,23.76
2022-08-30T08:17:13.124Z,23.37
2022-08-30T08:19:44.729Z,23.18
2022-08-30T08:22:23.457Z,22.79
2022-08-30T08:24:55.041Z,22.55
2022-08-30T08:27:26.913Z,22.44
2022-08-30T08:29:58.567Z,22.38
2022-08-30T08:32:30.130Z,22.29
2022-08-30T08:35:02.298Z,22.32
2022-08-30T08:37:33.872Z,22.21
2022-08-30T08:40:06.752Z,22.11
2022-08-30T08:42:51.538Z,21.91
2022-08-30T08:45:47.341Z,21.76
2022-08-30T08:48:51.905Z,21.59
2022-08-30T08:51:49.183Z,21.75
2022-08-30T08:54:38.831Z,22.03
2022-08-30T08:57:13.801Z,22.29
2022-08-30T08:59:48.435Z,22.48
2022-08-30T09:02:29.837Z,22.42
2022-08-30T09:05:03.064Z,22.28
2022-08-30T09:07:41.990Z,22.34
2022-08-30T09:10:13.601Z,22.39
2022-08-30T09:12:45.225Z,22.19
2022-08-30T09:15:18.102Z,22.16
2022-08-30T09:18:04.624Z,22.61
2022-08-30T09:20:41.382Z,23.37
2022-08-30T09:23:15.742Z,23.81
2022-08-30T09:25:59.276Z,24.16
2022-08-30T09:28:43.477Z,23.93
2022-08-30T09:31:24.596Z,24.06
2022-08-30T09:34:07.666Z,24.32
2022-08-30T09:36:51.401Z,24.59
2022-08-30T09:39:33.430Z,24.48
2022-08-30T09:42:31.402Z,24.56
2022-08-30T09:45:10.871Z,24.45
2022-08-30T09:47:43.504Z,24.73
2022-08-30T09:50:26.855Z,25.00
2022-08-30T09:53:23.737Z,24.84
2022-08-30T09:56:03.371Z,24.59
2022-08-30T09:58:50.547Z,24.36
2022-08-30T10:01:27.910Z,24.18
2022-08-30T10:04:06.698Z,24.56
2022-08-30T10:06:55.841Z,24.92
2022-08-30T10:09:48.603Z,25.13
2022-08-30T10:13:07.155Z,25.36
2022-08-30T10:15:45.696Z,25.51
2022-08-30T10:18:26.330Z,25.46
2022-08-30T10:21:13.519Z,25.39
2022-08-30T10:23:54.381Z,25.23
2022-08-30T10:26:38.837Z,25.25
2022-08-30T10:29:22.406Z,25.03
2022-08-30T10:32:01.098Z,24.95
2022-08-30T10:34:41.421Z,24.91
2022-08-30T10:37:16.776Z,24.67
2022-08-30T10:39:56.353Z,24.72
2022-08-30T10:42:39.413Z,25.14
2022-08-30T10:45:16.858Z,25.40
2022-08-30T10:47:57.639Z,25.03
2022-08-30T10:50:41.021Z,24.99
2022-08-30T10:53:24.681Z,25.18
2022-08-30T10:56:09.285Z,25.20
2022-08-30T10:58:41.914Z,25.24
2022-08-30T11:01:16.450Z,25.32
2022-08-30T11:04:09.722Z,25.34
2022-08-30T11:07:09.840Z,25.60
2022-08-30T11:10:02.845Z,25.74
2022-08-30T11:13:31.065Z,26.06
2022-08-30T11:16:09.180Z,26.53
2022-08-30T11:18:52.644Z,26.67
2022-08-30T11:21:43.333Z,26.85
2022-08-30T11:24:23.068Z,26.53
2022-08-30T11:26:58.750Z,26.17
2022-08-30T11:29:36.948Z,26.09
2022-08-30T11:32:17.154Z,25.88
2022-08-30T11:34:48.950Z,25.70
2022-08-30T11:37:37.190Z,25.48
2022-08-30T11:43:36.550Z,25.46
2022-08-30T11:46:27.159Z,25.49
2022-08-30T11:49:13.348Z,25.49
2022-08-30T11:52:27.655Z,25.56
2022-08-30T11:55:17.519Z,25.69
2022-08-30T11:58:00.048Z,25.83
2022-08-30T12:00:34.290Z,25.82
2022-08-30T12:03:32.771Z,25.84
2022-08-30T12:06:09.747Z,25.74
2022-08-30T12:08:55.164Z,25.91
2022-08-30T12:11:33.970Z,25.63
2022-08-30T12:14:09.376Z,25.56
2022-08-30T12:17:05.639Z,25.23
2022-08-30T12:19:38.617Z,24.96
2022-08-30T12:22:17.281Z,25.10
2022-08-30T12:24:52.884Z,25.31
2022-08-30T12:27:33.524Z,25.38
2022-08-30T12:30:08.457Z,25.38
2022-08-30T12:32:47.672Z,25.23
2022-08-30T12:35:28.133Z,25.05
2022-08-30T12:38:05.309Z,24.98
2022-08-30T12:40:37.034Z,25.03
2022-08-30T12:43:23.722Z,25.06
2022-08-30T12:46:00.975Z,25.24
2022-08-30T12:48:44.085Z,25.38
2022-08-30T12:51:30.042Z,25.49
2022-08-30T12:54:15.923Z,25.50
2022-08-30T12:56:54.364Z,25.50
2022-08-30T12:59:52.889Z,25.51
2022-08-30T13:02:43.604Z,25.57
2022-08-30T13:05:45.584Z,25.57
2022-08-30T13:08:35.805Z,25.78
2022-08-30T13:11:24.841Z,26.01
2022-08-30T13:14:32.454Z,26.00
2022-08-30T13:17:21.252Z,26.09
2022-08-30T13:20:07.183Z,26.05
2022-08-30T13:22:41.446Z,26.04
2022-08-30T13:25:13.693Z,26.20
2022-08-30T13:27:45.304Z,26.45
2022-08-30T13:30:16.988Z,26.66
2022-08-30T13:32:48.637Z,26.61
2022-08-30T13:35:20.330Z,26.64
2022-08-30T13:37:52.237Z,26.54
2022-08-30T13:40:23.969Z,26.45
2022-08-30T13:42:55.880Z,26.31
2022-08-30T13:45:45.693Z,26.19
2022-08-30T13:48:24.706Z,26.07
2022-08-30T13:50:57.061Z,26.10
2022-08-30T13:56:21.380Z,25.92
2022-08-30T13:58:53.076Z,25.99
2022-08-30T14:01:25.053Z,26.01
2022-08-30T14:09:40.191Z,26.02
2022-08-30T14:12:11.888Z,26.03
2022-08-30T14:14:44.688Z,26.03
2022-08-30T14:17:17.244Z,25.89
2022-08-30T14:19:50.168Z,25.59
2022-08-30T14:22:21.769Z,25.58
2022-08-30T14:24:54.287Z,25.63
2022-08-30T14:27:30.619Z,25.68
2022-08-30T14:30:05.210Z,25.58
2022-08-30T14:32:36.900Z,25.58
2022-08-30T14:35:09.351Z,25.52
2022-08-30T14:37:42.273Z,25.38
2022-08-30T14:40:15.252Z,25.39
2022-08-30T14:42:46.945Z,25.38
2022-08-30T14:45:18.994Z,25.46
2022-08-30T14:47:51.148Z,25.36
2022-08-30T14:50:22.830Z,25.42
2022-08-30T14:52:54.446Z,25.32
2022-08-30T14:55:28.692Z,25.17
2022-08-30T14:58:01.334Z,25.12
2022-08-30T15:00:33.631Z,25.15
2022-08-30T15:03:08.834Z,25.18
2022-08-30T15:05:40.505Z,25.28
2022-08-30T15:08:12.724Z,25.26
2022-08-30T15:10:45.212Z,25.21
2022-08-30T15:13:17.196Z,25.17
2022-08-30T15:15:49.087Z,25.11
2022-08-30T15:18:20.740Z,24.99
2022-08-30T15:20:53.654Z,24.86
2022-08-30T15:23:25.317Z,24.86
2022-08-30T15:25:56.995Z,24.95
2022-08-30T15:28:28.875Z,24.83
2022-08-30T15:31:03.030Z,24.78
2022-08-30T15:33:37.837Z,24.93
2022-08-30T15:36:09.906Z,25.01
2022-08-30T15:38:42.502Z,24.96
2022-08-30T15:41:15.571Z,24.84
2022-08-30T15:43:47.294Z,24.78
2022-08-30T15:46:28.292Z,24.70
2022-08-30T15:49:07.756Z,24.60
2022-08-30T15:51:41.400Z,24.68
2022-08-30T15:54:16.568Z,24.72
2022-08-30T15:56:48.292Z,24.69
2022-08-30T15:59:19.841Z,24.71
2022-08-30T16:01:51.623Z,24.71
2022-08-30T16:04:23.291Z,24.87
2022-08-30T16:06:57.833Z,24.73
2022-08-30T16:09:32.446Z,24.64
2022-08-30T16:12:05.592Z,24.65
2022-08-30T16:14:37.953Z,24.59
2022-08-30T16:17:09.643Z,24.45
2022-08-30T16:19:41.266Z,24.38
2022-08-30T16:22:12.854Z,24.40
2022-08-30T16:24:47.507Z,24.38
2022-08-30T16:27:19.181Z,24.33
2022-08-30T16:29:52.868Z,24.27
2022-08-30T16:32:25.746Z,24.25
2022-08-30T16:34:57.343Z,24.22
2022-08-30T16:37:29.133Z,24.20
2022-08-30T16:40:01.592Z,24.21
2022-08-30T16:42:33.586Z,24.27
2022-08-30T16:45:10.519Z,24.36
2022-08-30T16:47:42.669Z,24.33
2022-08-30T16:50:18.416Z,24.25
2022-08-30T16:52:50.411Z,24.14
2022-08-30T16:55:24.102Z,24.11
2022-08-30T16:57:56.415Z,23.94
2022-08-30T17:00:28.395Z,23.89
2022-08-30T17:03:00.495Z,23.83
2022-08-30T17:05:32.570Z,23.81
2022-08-30T17:08:04.887Z,23.76
2022-08-30T17:10:37.362Z,23.75
2022-08-30T17:13:09.964Z,23.77
2022-08-30T17:15:45.727Z,23.80
2022-08-30T17:18:18.877Z,23.78
2022-08-30T17:20:51.195Z,23.76
2022-08-30T17:23:24.118Z,23.75
2022-08-30T17:25:56.978Z,23.71
2022-08-30T17:28:28.950Z,23.70
2022-08-30T17:31:01.990Z,23.66
2022-08-30T17:33:38.902Z,23.64
2022-08-30T17:36:11.597Z,23.58
2022-08-30T17:38:45.158Z,23.58
2022-08-30T17:41:17.585Z,23.58
2022-08-30T17:43:49.248Z,23.54
2022-08-30T17:46:21.122Z,23.43
2022-08-30T17:49:01.050Z,23.38
2022-08-30T17:51:33.284Z,23.32
2022-08-30T17:54:05.040Z,23.28
2022-08-30T17:56:36.611Z,23.27
2022-08-30T17:59:10.031Z,23.27
2022-08-30T18:01:43.227Z,23.24
2022-08-30T18:04:19.711Z,23.23
2022-08-30T18:06:52.926Z,23.20
2022-08-30T18:09:24.839Z,23.17
2022-08-30T18:11:56.533Z,23.14
2022-08-30T18:14:28.331Z,23.10
2022-08-30T18:16:59.993Z,23.05
2022-08-30T18:19:34.568Z,23.04
2022-08-30T18:22:07.852Z,23.04
2022-08-30T18:24:39.641Z,23.04
2022-08-30T18:27:11.292Z,23.02
2022-08-30T18:29:45.339Z,22.95
2022-08-30T18:32:16.984Z,22.86
2022-08-30T18:34:49.329Z,22.87
2022-08-30T18:37:20.933Z,22.80
2022-08-30T18:39:59.937Z,22.77
2022-08-30T18:42:32.776Z,22.74
2022-08-30T18:45:08.554Z,22.70
2022-08-30T18:47:46.749Z,22.73
2022-08-30T18:50:18.737Z,22.73
2022-08-30T18:52:52.721Z,22.65
2022-08-30T18:55:53.982Z,22.64
2022-08-30T18:58:30.816Z,22.61
2022-08-30T19:01:04.842Z,22.57
2022-08-30T19:03:37.435Z,22.56
2022-08-30T19:06:11.866Z,22.49
2022-08-30T19:08:45.766Z,22.44
2022-08-30T19:11:19.730Z,22.42
2022-08-30T19:13:53.437Z,22.40
2022-08-30T19:16:27.578Z,22.34
2022-08-30T19:19:04.155Z,22.24
2022-08-30T19:21:35.983Z,22.16
2022-08-30T19:24:08.789Z,22.16
2022-08-30T19:26:42.606Z,22.17
2022-08-30T19:29:18.398Z,22.15
2022-08-30T19:31:51.710Z,22.04
2022-08-30T19:34:24.127Z,22.08
2022-08-30T19:36:55.972Z,22.02
2022-08-30T19:39:31.006Z,21.89
2022-08-30T19:42:02.832Z,21.83
2022-08-30T19:44:34.493Z,21.79
2022-08-30T19:47:06.429Z,21.75
2022-08-30T19:49:38.701Z,21.59
2022-08-30T19:52:10.360Z,21.32
2022-08-30T19:54:41.983Z,21.13
2022-08-30T19:57:14.219Z,20.96
2022-08-30T19:59:45.852Z,20.92
2022-08-30T20:02:18.001Z,20.95
2022-08-30T20:04:50.197Z,20.96
2022-08-30T20:07:25.247Z,20.87
2022-08-30T20:10:02.879Z,20.78
2022-08-30T20:12:39.940Z,20.75
2022-08-30T20:15:17.677Z,20.71
2022-08-30T20:18:14.545Z,20.72
2022-08-30T20:20:48.592Z,20.72
2022-08-30T20:23:24.167Z,20.65
2022-08-30T20:25:57.624Z,20.59
2022-08-30T20:28:30.018Z,20.58
2022-08-30T20:31:04.815Z,20.59
2022-08-30T20:33:38.248Z,20.51
2022-08-30T20:36:11.318Z,20.33
2022-08-30T20:38:43.644Z,20.33
2022-08-30T20:41:17.806Z,20.32
2022-08-30T20:43:49.939Z,20.33
2022-08-30T20:46:21.785Z,20.33
2022-08-30T20:48:54.010Z,20.35
2022-08-30T20:51:27.518Z,20.33
2022-08-30T20:53:59.343Z,20.33
2022-08-30T20:56:31.740Z,20.37
2022-08-30T20:59:04.960Z,20.41
2022-08-30T21:01:38.800Z,20.41
2022-08-30T21:04:12.618Z,20.44
2022-08-30T21:06:44.222Z,20.46
2022-08-30T21:09:15.870Z,20.40
2022-08-30T21:11:48.009Z,20.27
2022-08-30T21:14:21.800Z,20.27
2022-08-30T21:16:53.572Z,20.30
2022-08-30T21:19:25.401Z,20.33
2022-08-30T21:21:57.013Z,20.33
2022-08-30T21:24:31.381Z,20.38
2022-08-30T21:27:03.551Z,20.38
2022-08-30T21:29:35.158Z,20.31
2022-08-30T21:32:06.826Z,20.24
2022-08-30T21:34:58.515Z,20.22
2022-08-30T21:37:35.544Z,20.21
2022-08-30T21:40:08.450Z,20.21
2022-08-30T21:42:43.567Z,20.19
2022-08-30T21:45:15.338Z,20.17
2022-08-30T21:47:46.958Z,20.08
2022-08-30T21:50:19.941Z,20.05
2022-08-30T21:52:52.017Z,20.04
2022-08-30T21:55:26.081Z,19.97
2022-08-30T21:57:57.797Z,19.94
2022-08-30T22:00:29.724Z,19.93
2022-08-30T22:03:01.523Z,19.93
2022-08-30T22:05:33.234Z,19.91
2022-08-30T22:08:05.019Z,19.88
2022-08-30T22:10:36.721Z,19.88
2022-08-30T22:13:10.086Z,19.86
2022-08-30T22:15:42.352Z,19.82
2022-08-30T22:18:15.952Z,19.80
2022-08-30T22:20:49.570Z,19.75
2022-08-30T22:23:22.865Z,19.73
2022-08-30T22:25:54.532Z,19.73
2022-08-30T22:28:26.194Z,19.72
2022-08-30T22:31:01.594Z,19.68
2022-08-30T22:33:33.282Z,19.63
2022-08-30T22:36:10.089Z,19.57
2022-08-30T22:38:41.825Z,19.52
2022-08-30T22:41:17.384Z,19.50
2022-08-30T22:43:49.412Z,19.48
2022-08-30T22:46:24.058Z,19.46
2022-08-30T22:49:10.260Z,19.41
2022-08-30T22:51:41.969Z,19.41
2022-08-30T22:54:13.670Z,19.43
2022-08-30T22:56:45.274Z,19.43
2022-08-30T22:59:16.918Z,19.43
2022-08-30T23:01:48.580Z,19.41
2022-08-30T23:04:20.281Z,19.41
2022-08-30T23:06:51.883Z,19.40
2022-08-30T23:09:23.445Z,19.41
2022-08-30T23:11:55.828Z,19.44
2022-08-30T23:14:27.410Z,19.49
2022-08-30T23:16:59.091Z,19.50
2022-08-30T23:19:30.711Z,19.51
2022-08-30T23:22:02.324Z,19.52
2022-08-30T23:24:52.639Z,19.53
2022-08-30T23:27:42.966Z,19.51
2022-08-30T23:30:32.845Z,19.51
2022-08-30T23:33:26.086Z,19.53
2022-08-30T23:36:16.128Z,19.56
2022-08-30T23:39:06.486Z,19.57
2022-08-30T23:41:56.697Z,19.59
2022-08-30T23:44:46.954Z,19.58
2022-08-30T23:47:37.067Z,19.57
2022-08-30T23:50:27.386Z,19.58
2022-08-30T23:53:17.982Z,19.52
2022-08-30T23:56:08.180Z,19.53
2022-08-30T23:58:59.541Z,19.55
